Time,TemperatureF,DewpointF,PressureIn,WindDirection,WindDirectionDegrees,WindSpeedMPH,WindSpeedGustMPH,Humidity,HourlyPrecipIn,Conditions,Clouds,dailyrainin,SoftwareType,DateUTC
2013-10-24 00:00:00,30.7,29.7,29.54,NNW,339,0.0,0.0,96,0.00,,,0.00,Wunderground v.1.13,2013-10-24 04:00:00,
2013-10-24 00:30:00,31.0,30.2,29.55,NNW,339,0.0,0.0,97,0.00,,,0.00,Wunderground v.1.13,2013-10-24 04:30:00,
2013-10-24 01:00:00,32.0,31.2,29.55,NNW,339,0.0,0.0,97,0.00,,,0.00,Wunderground v.1.13,2013-10-24 05:00:00,
2013-10-24 01:30:00,32.9,31.9,29.54,NNW,339,0.0,0.0,96,0.00,,,0.00,Wunderground v.1.13,2013-10-24 05:30:00,
2013-10-24 02:00:00,32.5,31.5,29.53,NNW,328,0.0,0.0,96,0.00,,,0.00,Wunderground v.1.13,2013-10-24 06:00:00,
2013-10-24 02:30:00,32.5,31.5,29.52,NNW,328,0.0,0.0,96,0.00,,,0.00,Wunderground v.1.13,2013-10-24 06:30:00,
2013-10-24 03:00:00,32.9,31.9,29.50,North,355,0.0,0.0,96,0.00,,,0.00,Wunderground v.1.13,2013-10-24 07:00:00,
2013-10-24 03:30:00,33.1,32.1,29.50,North,355,0.0,0.0,96,0.00,,,0.00,Wunderground v.1.13,2013-10-24 07:30:00,
2013-10-24 04:00:00,32.8,31.5,29.50,North,355,0.0,0.0,95,0.00,,,0.00,Wunderground v.1.13,2013-10-24 08:00:00,
2013-10-24 04:30:00,31.9,30.9,29.50,North,355,0.0,0.0,96,0.00,,,0.00,Wunderground v.1.13,2013-10-24 08:30:00,
2013-10-24 05:00:00,32.0,30.7,29.50,North,355,0.0,0.0,95,0.00,,,0.00,Wunderground v.1.13,2013-10-24 09:00:00,
2013-10-24 05:30:00,32.5,30.7,29.50,North,355,0.0,0.0,93,0.00,,,0.00,Wunderground v.1.13,2013-10-24 09:30:00,
2013-10-24 06:00:00,31.2,29.9,29.50,NE,47,1.0,1.0,95,0.00,,,0.00,Wunderground v.1.13,2013-10-24 10:00:00,
2013-10-24 06:30:00,31.6,29.3,29.50,North,11,1.0,2.0,91,0.00,,,0.00,Wunderground v.1.13,2013-10-24 10:30:00,
2013-10-24 07:00:00,32.4,28.4,29.50,East,93,2.0,9.0,85,0.00,,,0.00,Wunderground v.1.13,2013-10-24 11:00:00,
2013-10-24 07:30:00,31.1,27.4,29.52,East,80,0.0,1.0,86,0.00,,,0.00,Wunderground v.1.13,2013-10-24 11:30:00,
2013-10-24 08:00:00,31.1,27.7,29.52,ENE,59,0.0,0.0,87,0.00,,,0.00,Wunderground v.1.13,2013-10-24 12:00:00,
2013-10-24 08:30:00,32.8,27.9,29.52,ENE,71,0.0,0.0,82,0.00,,,0.00,Wunderground v.1.13,2013-10-24 12:30:00,
2013-10-24 09:00:00,34.8,28.6,29.52,North,5,2.0,3.0,78,0.00,,,0.00,Wunderground v.1.13,2013-10-24 13:00:00,
2013-10-24 09:30:00,35.2,28.4,29.52,NNW,339,2.0,2.0,76,0.00,,,0.00,Wunderground v.1.13,2013-10-24 13:30:00,
2013-10-24 10:00:00,36.3,28.8,29.51,North,355,4.0,4.0,74,0.00,,,0.00,Wunderground v.1.13,2013-10-24 14:00:00,
2013-10-24 10:30:00,37.3,29.1,29.51,North,11,3.0,3.0,72,0.00,,,0.00,Wunderground v.1.13,2013-10-24 14:30:00,
2013-10-24 11:00:00,36.7,26.0,29.52,West,281,6.0,6.0,65,0.00,,,0.01,Wunderground v.1.13,2013-10-24 15:00:00,
2013-10-24 11:30:00,36.6,25.6,29.52,SE,126,6.0,6.0,64,0.00,,,0.01,Wunderground v.1.13,2013-10-24 15:30:00,
2013-10-24 12:00:00,36.0,25.7,29.51,North,5,4.0,4.0,66,0.00,,,0.01,Wunderground v.1.13,2013-10-24 16:00:00,
2013-10-24 12:30:00,36.0,25.4,29.50,North,10,3.0,3.0,65,0.00,,,0.01,Wunderground v.1.13,2013-10-24 16:30:00,
2013-10-24 13:00:00,36.8,25.4,29.49,West,270,4.0,4.0,63,0.00,,,0.01,Wunderground v.1.13,2013-10-24 17:00:00,
2013-10-24 13:30:00,36.9,25.5,29.48,North,355,4.0,11.0,63,0.00,,,0.01,Wunderground v.1.13,2013-10-24 17:30:00,
2013-10-24 14:00:00,37.8,26.3,29.48,NE,37,3.0,5.0,63,0.00,,,0.01,Wunderground v.1.13,2013-10-24 18:00:00,
2013-10-24 14:30:00,38.9,26.2,29.47,East,101,3.0,3.0,60,0.00,,,0.01,Wunderground v.1.13,2013-10-24 18:30:00,
2013-10-24 15:00:00,39.7,26.1,29.48,East,80,4.0,6.0,58,0.00,,,0.01,Wunderground v.1.13,2013-10-24 19:00:00,
2013-10-24 15:30:00,39.4,27.1,29.48,East,85,4.0,4.0,61,0.00,,,0.01,Wunderground v.1.13,2013-10-24 19:30:00,
2013-10-24 16:00:00,39.1,26.8,29.48,ENE,68,6.0,6.0,61,0.00,,,0.01,Wunderground v.1.13,2013-10-24 20:00:00,
2013-10-24 16:30:00,38.9,27.4,29.49,NNE,30,5.0,10.0,63,0.00,,,0.01,Wunderground v.1.13,2013-10-24 20:30:00,
2013-10-24 17:00:00,38.7,27.9,29.49,NE,53,3.0,3.0,65,0.00,,,0.01,Wunderground v.1.13,2013-10-24 21:00:00,
2013-10-24 17:30:00,38.0,29.8,29.51,NE,38,6.0,6.0,72,0.00,,,0.01,Wunderground v.1.13,2013-10-24 21:30:00,
2013-10-24 18:00:00,36.2,31.5,29.52,NNE,27,3.0,4.0,83,0.00,,,0.01,Wunderground v.1.13,2013-10-24 22:00:00,
2013-10-24 18:30:00,35.3,32.1,29.52,NE,51,3.0,3.0,88,0.00,,,0.01,Wunderground v.1.13,2013-10-24 22:30:00,
2013-10-24 19:00:00,35.6,32.1,29.52,NE,44,3.0,3.0,87,0.00,,,0.01,Wunderground v.1.13,2013-10-24 23:00:00,
2013-10-24 19:30:00,36.3,32.2,29.52,NNW,338,1.0,3.0,85,0.00,,,0.01,Wunderground v.1.13,2013-10-24 23:30:00,
2013-10-24 20:00:00,36.7,31.7,29.52,WNW,288,2.0,5.0,82,0.00,,,0.01,Wunderground v.1.13,2013-10-25 00:00:00,
2013-10-24 20:30:00,36.8,31.8,29.52,South,171,4.0,4.0,82,0.00,,,0.01,Wunderground v.1.13,2013-10-25 00:30:00,
2013-10-24 21:00:00,36.7,31.7,29.54,NNE,26,3.0,4.0,82,0.00,,,0.01,Wunderground v.1.13,2013-10-25 01:00:00,
2013-10-24 21:30:00,36.6,31.9,29.54,North,355,3.0,3.0,83,0.00,,,0.01,Wunderground v.1.13,2013-10-25 01:30:00,
2013-10-24 22:00:00,36.6,32.2,29.54,NE,49,4.0,4.0,84,0.00,,,0.01,Wunderground v.1.13,2013-10-25 02:00:00,
2013-10-24 22:30:00,36.8,32.7,29.55,NE,40,2.0,2.0,85,0.00,,,0.01,Wunderground v.1.13,2013-10-25 02:30:00,
2013-10-24 23:00:00,36.8,32.7,29.56,East,92,3.0,5.0,85,0.00,,,0.01,Wunderground v.1.13,2013-10-25 03:00:00,
2013-10-24 23:30:00,36.7,32.6,29.56,NE,39,2.0,2.0,85,0.00,,,0.01,Wunderground v.1.13,2013-10-25 03:30:00,